sensor_id;sensor_type;location;lat;lon;timestamp;temperature;humidity
64499;SHT31;51087;55.718;21.122;2023-01-05T00:01:12;6.39;99.99
64499;SHT31;51087;55.718;21.122;2023-01-05T00:03:40;6.38;99.99
64499;SHT31;51087;55.718;21.122;2023-01-05T00:06:11;6.35;99.99
64499;SHT31;51087;55.718;21.122;2023-01-05T00:08:36;6.41;99.99
64499;SHT31;51087;55.718;21.122;2023-01-05T00:11:06;6.38;99.99
64499;SHT31;51087;55.718;21.122;2023-01-05T00:13:51;6.38;99.99
64499;SHT31;51087;55.718;21.122;2023-01-05T00:16:34;6.38;99.99
64499;SHT31;51087;55.718;21.122;2023-01-05T00:19:18;6.39;99.99
64499;SHT31;51087;55.718;21.122;2023-01-05T00:22:28;6.37;99.99
64499;SHT31;51087;55.718;21.122;2023-01-05T00:25:07;6.35;99.99
64499;SHT31;51087;55.718;21.122;2023-01-05T00:27:33;6.35;99.99
64499;SHT31;51087;55.718;21.122;2023-01-05T00:29:59;6.37;99.99
64499;SHT31;51087;55.718;21.122;2023-01-05T00:32:27;6.35;99.99
64499;SHT31;51087;55.718;21.122;2023-01-05T00:34:57;6.38;99.99
64499;SHT31;51087;55.718;21.122;2023-01-05T00:37:24;6.38;99.99
64499;SHT31;51087;55.718;21.122;2023-01-05T00:39:50;6.39;99.99
64499;SHT31;51087;55.718;21.122;2023-01-05T00:42:15;6.41;99.99
64499;SHT31;51087;55.718;21.122;2023-01-05T00:44:41;6.37;99.99
64499;SHT31;51087;55.718;21.122;2023-01-05T00:47:07;6.34;99.99
64499;SHT31;51087;55.718;21.122;2023-01-05T00:49:32;6.34;99.99
64499;SHT31;51087;55.718;21.122;2023-01-05T00:51:58;6.38;99.99
64499;SHT31;51087;55.718;21.122;2023-01-05T00:54:23;6.31;99.99
64499;SHT31;51087;55.718;21.122;2023-01-05T00:56:49;6.34;99.99
64499;SHT31;51087;55.718;21.122;2023-01-05T00:59:15;6.31;99.99
64499;SHT31;51087;55.718;21.122;2023-01-05T01:01:44;6.31;99.99
64499;SHT31;51087;55.718;21.122;2023-01-05T01:04:10;6.29;99.99
64499;SHT31;51087;55.718;21.122;2023-01-05T01:06:35;6.29;99.99
64499;SHT31;51087;55.718;21.122;2023-01-05T01:09:01;6.31;99.99
64499;SHT31;51087;55.718;21.122;2023-01-05T01:11:26;6.31;99.99
64499;SHT31;51087;55.718;21.122;2023-01-05T01:13:52;6.28;99.99
64499;SHT31;51087;55.718;21.122;2023-01-05T01:16:17;6.25;99.99
64499;SHT31;51087;55.718;21.122;2023-01-05T01:18:42;6.22;99.99
64499;SHT31;51087;55.718;21.122;2023-01-05T01:21:08;6.21;99.99
64499;SHT31;51087;55.718;21.122;2023-01-05T01:23:35;6.17;99.99
64499;SHT31;51087;55.718;21.122;2023-01-05T01:26:10;6.16;99.99
64499;SHT31;51087;55.718;21.122;2023-01-05T01:28:36;6.14;99.99
64499;SHT31;51087;55.718;21.122;2023-01-05T01:31:02;6.17;99.99
64499;SHT31;51087;55.718;21.122;2023-01-05T01:33:28;6.14;99.99
64499;SHT31;51087;55.718;21.122;2023-01-05T01:35:53;6.16;99.99
64499;SHT31;51087;55.718;21.122;2023-01-05T01:38:19;6.13;99.99
64499;SHT31;51087;55.718;21.122;2023-01-05T01:40:46;6.10;99.99
64499;SHT31;51087;55.718;21.122;2023-01-05T01:43:48;6.11;99.99
64499;SHT31;51087;55.718;21.122;2023-01-05T01:46:15;6.11;99.99
64499;SHT31;51087;55.718;21.122;2023-01-05T01:48:48;6.08;99.99
64499;SHT31;51087;55.718;21.122;2023-01-05T01:51:42;6.11;99.99
64499;SHT31;51087;55.718;21.122;2023-01-05T01:54:12;6.14;99.99
64499;SHT31;51087;55.718;21.122;2023-01-05T01:56:47;6.10;99.99
64499;SHT31;51087;55.718;21.122;2023-01-05T01:59:14;6.08;99.99
64499;SHT31;51087;55.718;21.122;2023-01-05T02:01:40;6.04;99.99
64499;SHT31;51087;55.718;21.122;2023-01-05T02:04:06;6.06;99.99
64499;SHT31;51087;55.718;21.122;2023-01-05T02:06:33;6.08;99.99
64499;SHT31;51087;55.718;21.122;2023-01-05T02:08:59;6.10;99.99
64499;SHT31;51087;55.718;21.122;2023-01-05T02:11:41;6.10;99.99
64499;SHT31;51087;55.718;21.122;2023-01-05T02:21:55;6.10;99.99
64499;SHT31;51087;55.718;21.122;2023-01-05T02:32:21;6.03;99.99
64499;SHT31;51087;55.718;21.122;2023-01-05T02:40:28;5.99;99.99
64499;SHT31;51087;55.718;21.122;2023-01-05T02:42:54;5.97;99.99
64499;SHT31;51087;55.718;21.122;2023-01-05T02:45:22;5.96;99.99
64499;SHT31;51087;55.718;21.122;2023-01-05T02:47:48;5.91;99.99
64499;SHT31;51087;55.718;21.122;2023-01-05T02:50:36;5.86;99.99
64499;SHT31;51087;55.718;21.122;2023-01-05T02:55:44;5.76;99.99
64499;SHT31;51087;55.718;21.122;2023-01-05T02:58:36;5.74;99.99
64499;SHT31;51087;55.718;21.122;2023-01-05T03:01:02;5.73;99.99
64499;SHT31;51087;55.718;21.122;2023-01-05T03:03:57;5.67;99.99
64499;SHT31;51087;55.718;21.122;2023-01-05T03:06:35;5.74;99.99
64499;SHT31;51087;55.718;21.122;2023-01-05T03:09:03;5.65;99.99
64499;SHT31;51087;55.718;21.122;2023-01-05T03:11:38;5.63;99.99
64499;SHT31;51087;55.718;21.122;2023-01-05T03:14:30;5.63;99.99
64499;SHT31;51087;55.718;21.122;2023-01-05T03:16:57;5.67;99.99
64499;SHT31;51087;55.718;21.122;2023-01-05T03:19:24;5.59;99.99
64499;SHT31;51087;55.718;21.122;2023-01-05T03:22:14;5.56;99.99
64499;SHT31;51087;55.718;21.122;2023-01-05T03:24:59;5.59;99.99
64499;SHT31;51087;55.718;21.122;2023-01-05T03:27:45;5.55;99.99
64499;SHT31;51087;55.718;21.122;2023-01-05T03:30:58;5.56;99.99
64499;SHT31;51087;55.718;21.122;2023-01-05T03:36:42;5.56;99.99
64499;SHT31;51087;55.718;21.122;2023-01-05T03:39:11;5.62;99.99
64499;SHT31;51087;55.718;21.122;2023-01-05T03:41:38;5.53;99.99
64499;SHT31;51087;55.718;21.122;2023-01-05T03:44:05;5.56;99.99
64499;SHT31;51087;55.718;21.122;2023-01-05T03:46:30;5.49;99.99
64499;SHT31;51087;55.718;21.122;2023-01-05T03:48:56;5.48;99.99
64499;SHT31;51087;55.718;21.122;2023-01-05T03:51:21;5.46;99.99
64499;SHT31;51087;55.718;21.122;2023-01-05T03:53:47;5.45;99.99
64499;SHT31;51087;55.718;21.122;2023-01-05T03:56:12;5.43;99.99
64499;SHT31;51087;55.718;21.122;2023-01-05T03:58:38;5.53;99.99
64499;SHT31;51087;55.718;21.122;2023-01-05T04:01:04;5.43;99.99
64499;SHT31;51087;55.718;21.122;2023-01-05T04:03:30;5.41;99.99
64499;SHT31;51087;55.718;21.122;2023-01-05T04:05:55;5.36;99.99
64499;SHT31;51087;55.718;21.122;2023-01-05T04:08:21;5.38;99.99
64499;SHT31;51087;55.718;21.122;2023-01-05T04:10:46;5.39;99.99
64499;SHT31;51087;55.718;21.122;2023-01-05T04:13:12;5.45;99.99
64499;SHT31;51087;55.718;21.122;2023-01-05T04:15:38;5.39;99.99
64499;SHT31;51087;55.718;21.122;2023-01-05T04:18:05;5.41;99.99
64499;SHT31;51087;55.718;21.122;2023-01-05T04:20:31;5.36;99.99
64499;SHT31;51087;55.718;21.122;2023-01-05T04:22:56;5.34;99.99
64499;SHT31;51087;55.718;21.122;2023-01-05T04:25:21;5.32;99.99
64499;SHT31;51087;55.718;21.122;2023-01-05T04:27:47;5.35;99.99
64499;SHT31;51087;55.718;21.122;2023-01-05T04:30:12;5.32;99.99
64499;SHT31;51087;55.718;21.122;2023-01-05T04:32:38;5.32;99.99
64499;SHT31;51087;55.718;21.122;2023-01-05T04:35:03;5.31;99.99
64499;SHT31;51087;55.718;21.122;2023-01-05T04:37:29;5.30;99.99
64499;SHT31;51087;55.718;21.122;2023-01-05T04:39:54;5.30;99.99
64499;SHT31;51087;55.718;21.122;2023-01-05T04:42:20;5.28;99.99
64499;SHT31;51087;55.718;21.122;2023-01-05T04:44:45;5.28;99.99
64499;SHT31;51087;55.718;21.122;2023-01-05T04:47:11;5.28;99.99
64499;SHT31;51087;55.718;21.122;2023-01-05T04:49:36;5.21;99.99
64499;SHT31;51087;55.718;21.122;2023-01-05T04:52:02;5.23;99.99
64499;SHT31;51087;55.718;21.122;2023-01-05T04:54:27;5.14;99.99
64499;SHT31;51087;55.718;21.122;2023-01-05T04:56:53;5.15;99.99
64499;SHT31;51087;55.718;21.122;2023-01-05T04:59:18;5.18;99.99
64499;SHT31;51087;55.718;21.122;2023-01-05T05:01:44;5.15;99.99
64499;SHT31;51087;55.718;21.122;2023-01-05T05:04:09;5.18;99.99
64499;SHT31;51087;55.718;21.122;2023-01-05T05:06:35;5.21;99.99
64499;SHT31;51087;55.718;21.122;2023-01-05T05:09:00;5.25;99.99
64499;SHT31;51087;55.718;21.122;2023-01-05T05:11:26;5.23;99.99
64499;SHT31;51087;55.718;21.122;2023-01-05T05:13:51;5.21;99.99
64499;SHT31;51087;55.718;21.122;2023-01-05T05:16:16;5.20;99.99
64499;SHT31;51087;55.718;21.122;2023-01-05T05:18:42;5.18;99.99
64499;SHT31;51087;55.718;21.122;2023-01-05T05:21:07;5.23;99.99
64499;SHT31;51087;55.718;21.122;2023-01-05T05:23:33;5.23;99.99
64499;SHT31;51087;55.718;21.122;2023-01-05T05:25:58;5.18;99.99
64499;SHT31;51087;55.718;21.122;2023-01-05T05:28:24;5.13;99.99
64499;SHT31;51087;55.718;21.122;2023-01-05T05:30:53;5.11;99.99
64499;SHT31;51087;55.718;21.122;2023-01-05T05:33:19;5.08;99.99
64499;SHT31;51087;55.718;21.122;2023-01-05T05:35:44;5.10;99.99
64499;SHT31;51087;55.718;21.122;2023-01-05T05:38:10;5.11;99.99
64499;SHT31;51087;55.718;21.122;2023-01-05T05:40:35;5.04;99.99
64499;SHT31;51087;55.718;21.122;2023-01-05T05:43:04;5.03;99.99
64499;SHT31;51087;55.718;21.122;2023-01-05T05:45:29;4.98;99.99
64499;SHT31;51087;55.718;21.122;2023-01-05T05:47:55;4.98;99.99
64499;SHT31;51087;55.718;21.122;2023-01-05T05:50:20;4.97;99.99
64499;SHT31;51087;55.718;21.122;2023-01-05T05:52:46;5.00;99.99
64499;SHT31;51087;55.718;21.122;2023-01-05T05:55:11;4.80;99.99
64499;SHT31;51087;55.718;21.122;2023-01-05T05:57:37;4.66;99.99
64499;SHT31;51087;55.718;21.122;2023-01-05T06:00:06;4.58;99.99
64499;SHT31;51087;55.718;21.122;2023-01-05T06:02:31;4.38;99.99
64499;SHT31;51087;55.718;21.122;2023-01-05T06:04:57;4.27;99.99
64499;SHT31;51087;55.718;21.122;2023-01-05T06:07:22;4.04;99.99
64499;SHT31;51087;55.718;21.122;2023-01-05T06:09:48;3.87;99.99
64499;SHT31;51087;55.718;21.122;2023-01-05T06:12:13;3.67;99.99
64499;SHT31;51087;55.718;21.122;2023-01-05T06:14:39;3.64;99.99
64499;SHT31;51087;55.718;21.122;2023-01-05T06:17:04;3.56;99.99
64499;SHT31;51087;55.718;21.122;2023-01-05T06:19:30;3.42;99.99
64499;SHT31;51087;55.718;21.122;2023-01-05T06:21:55;3.29;99.99
64499;SHT31;51087;55.718;21.122;2023-01-05T06:24:20;3.18;99.99
64499;SHT31;51087;55.718;21.122;2023-01-05T06:26:46;3.14;99.99
64499;SHT31;51087;55.718;21.122;2023-01-05T06:29:12;3.11;99.99
64499;SHT31;51087;55.718;21.122;2023-01-05T06:31:37;3.04;99.99
64499;SHT31;51087;55.718;21.122;2023-01-05T06:34:03;2.97;99.99
64499;SHT31;51087;55.718;21.122;2023-01-05T06:36:28;2.87;99.99
64499;SHT31;51087;55.718;21.122;2023-01-05T06:38:54;2.81;99.99
64499;SHT31;51087;55.718;21.122;2023-01-05T06:41:19;2.72;99.99
64499;SHT31;51087;55.718;21.122;2023-01-05T06:43:45;2.70;99.99
64499;SHT31;51087;55.718;21.122;2023-01-05T06:46:10;2.62;99.99
64499;SHT31;51087;55.718;21.122;2023-01-05T06:48:36;2.62;99.99
64499;SHT31;51087;55.718;21.122;2023-01-05T06:51:01;2.62;99.99
64499;SHT31;51087;55.718;21.122;2023-01-05T06:53:26;2.57;99.99
64499;SHT31;51087;55.718;21.122;2023-01-05T06:55:52;2.57;99.99
64499;SHT31;51087;55.718;21.122;2023-01-05T06:58:26;2.54;99.99
64499;SHT31;51087;55.718;21.122;2023-01-05T07:00:53;2.53;99.99
64499;SHT31;51087;55.718;21.122;2023-01-05T07:03:18;2.50;99.99
64499;SHT31;51087;55.718;21.122;2023-01-05T07:05:44;2.50;99.99
64499;SHT31;51087;55.718;21.122;2023-01-05T07:08:12;2.49;99.99
64499;SHT31;51087;55.718;21.122;2023-01-05T07:10:38;2.52;99.99
64499;SHT31;51087;55.718;21.122;2023-01-05T07:13:03;2.46;99.99
64499;SHT31;51087;55.718;21.122;2023-01-05T07:15:28;2.45;99.99
64499;SHT31;51087;55.718;21.122;2023-01-05T07:17:54;2.48;99.99
64499;SHT31;51087;55.718;21.122;2023-01-05T07:20:19;2.41;99.99
64499;SHT31;51087;55.718;21.122;2023-01-05T07:22:45;2.41;99.99
64499;SHT31;51087;55.718;21.122;2023-01-05T07:25:10;2.39;99.99
64499;SHT31;51087;55.718;21.122;2023-01-05T07:27:36;2.43;99.99
64499;SHT31;51087;55.718;21.122;2023-01-05T07:30:01;2.39;99.99
64499;SHT31;51087;55.718;21.122;2023-01-05T07:32:27;2.33;99.99
64499;SHT31;51087;55.718;21.122;2023-01-05T07:34:52;2.35;99.99
64499;SHT31;51087;55.718;21.122;2023-01-05T07:37:17;2.33;99.99
64499;SHT31;51087;55.718;21.122;2023-01-05T07:39:43;2.31;99.99
64499;SHT31;51087;55.718;21.122;2023-01-05T07:42:09;2.35;99.99
64499;SHT31;51087;55.718;21.122;2023-01-05T07:44:34;2.41;99.99
64499;SHT31;51087;55.718;21.122;2023-01-05T07:47:00;2.38;99.99
64499;SHT31;51087;55.718;21.122;2023-01-05T07:49:26;2.38;99.99
64499;SHT31;51087;55.718;21.122;2023-01-05T07:51:52;2.31;99.99
64499;SHT31;51087;55.718;21.122;2023-01-05T07:54:17;2.31;99.99
64499;SHT31;51087;55.718;21.122;2023-01-05T07:56:43;2.31;99.99
64499;SHT31;51087;55.718;21.122;2023-01-05T07:59:08;2.35;99.99
64499;SHT31;51087;55.718;21.122;2023-01-05T08:01:34;2.36;99.99
64499;SHT31;51087;55.718;21.122;2023-01-05T08:03:59;2.31;99.99
64499;SHT31;51087;55.718;21.122;2023-01-05T08:06:24;2.31;99.99
64499;SHT31;51087;55.718;21.122;2023-01-05T08:08:50;2.31;99.99
64499;SHT31;51087;55.718;21.122;2023-01-05T08:11:16;2.29;99.99
64499;SHT31;51087;55.718;21.122;2023-01-05T08:13:43;2.38;99.99
64499;SHT31;51087;55.718;21.122;2023-01-05T08:16:27;2.39;99.99
64499;SHT31;51087;55.718;21.122;2023-01-05T08:18:53;2.29;99.99
64499;SHT31;51087;55.718;21.122;2023-01-05T08:21:19;2.31;99.99
64499;SHT31;51087;55.718;21.122;2023-01-05T08:23:45;2.33;99.99
64499;SHT31;51087;55.718;21.122;2023-01-05T08:26:13;2.25;99.99
64499;SHT31;51087;55.718;21.122;2023-01-05T08:28:39;2.21;99.99
64499;SHT31;51087;55.718;21.122;2023-01-05T08:31:31;2.31;99.99
64499;SHT31;51087;55.718;21.122;2023-01-05T08:34:01;2.24;99.99
64499;SHT31;51087;55.718;21.122;2023-01-05T08:36:28;2.17;99.99
64499;SHT31;51087;55.718;21.122;2023-01-05T08:38:55;2.13;99.99
64499;SHT31;51087;55.718;21.122;2023-01-05T08:41:23;2.14;99.99
64499;SHT31;51087;55.718;21.122;2023-01-05T08:43:50;2.11;99.99
64499;SHT31;51087;55.718;21.122;2023-01-05T08:46:17;2.11;99.99
64499;SHT31;51087;55.718;21.122;2023-01-05T08:48:42;2.13;99.99
64499;SHT31;51087;55.718;21.122;2023-01-05T08:51:08;2.08;99.99
64499;SHT31;51087;55.718;21.122;2023-01-05T08:53:33;2.08;99.99
64499;SHT31;51087;55.718;21.122;2023-01-05T08:56:00;2.08;99.99
64499;SHT31;51087;55.718;21.122;2023-01-05T08:58:26;1.98;99.99
64499;SHT31;51087;55.718;21.122;2023-01-05T09:00:51;1.97;99.99
64499;SHT31;51087;55.718;21.122;2023-01-05T09:03:18;1.95;99.99
64499;SHT31;51087;55.718;21.122;2023-01-05T09:05:43;1.93;99.99
64499;SHT31;51087;55.718;21.122;2023-01-05T09:08:09;1.98;99.99
64499;SHT31;51087;55.718;21.122;2023-01-05T09:10:35;1.93;99.99
64499;SHT31;51087;55.718;21.122;2023-01-05T09:13:00;1.94;99.99
64499;SHT31;51087;55.718;21.122;2023-01-05T09:15:25;1.93;99.99
64499;SHT31;51087;55.718;21.122;2023-01-05T09:17:51;1.90;99.99
64499;SHT31;51087;55.718;21.122;2023-01-05T09:20:16;1.94;99.99
64499;SHT31;51087;55.718;21.122;2023-01-05T09:22:42;1.95;99.99
64499;SHT31;51087;55.718;21.122;2023-01-05T09:25:08;1.87;99.99
64499;SHT31;51087;55.718;21.122;2023-01-05T09:27:34;1.81;99.99
64499;SHT31;51087;55.718;21.122;2023-01-05T09:30:01;1.83;99.99
64499;SHT31;51087;55.718;21.122;2023-01-05T09:32:26;1.77;99.99
64499;SHT31;51087;55.718;21.122;2023-01-05T09:34:52;1.86;99.99
64499;SHT31;51087;55.718;21.122;2023-01-05T09:37:17;1.80;99.99
64499;SHT31;51087;55.718;21.122;2023-01-05T09:39:43;1.81;99.99
64499;SHT31;51087;55.718;21.122;2023-01-05T09:42:12;1.77;99.99
64499;SHT31;51087;55.718;21.122;2023-01-05T09:44:47;1.76;99.99
64499;SHT31;51087;55.718;21.122;2023-01-05T09:47:28;1.73;99.99
64499;SHT31;51087;55.718;21.122;2023-01-05T09:49:57;1.71;99.99
64499;SHT31;51087;55.718;21.122;2023-01-05T09:52:23;1.76;99.99
64499;SHT31;51087;55.718;21.122;2023-01-05T09:54:50;1.77;99.85
64499;SHT31;51087;55.718;21.122;2023-01-05T09:57:19;1.77;99.25
64499;SHT31;51087;55.718;21.122;2023-01-05T09:59:53;1.73;99.46
64499;SHT31;51087;55.718;21.122;2023-01-05T10:04:53;1.68;99.81
64499;SHT31;51087;55.718;21.122;2023-01-05T10:07:33;1.74;99.82
64499;SHT31;51087;55.718;21.122;2023-01-05T10:13:01;1.59;99.24
64499;SHT31;51087;55.718;21.122;2023-01-05T10:15:35;1.50;99.65
64499;SHT31;51087;55.718;21.122;2023-01-05T10:18:08;1.57;99.99
64499;SHT31;51087;55.718;21.122;2023-01-05T10:21:43;1.53;99.99
64499;SHT31;51087;55.718;21.122;2023-01-05T10:28:57;1.38;99.65
64499;SHT31;51087;55.718;21.122;2023-01-05T10:34:22;1.36;99.48
64499;SHT31;51087;55.718;21.122;2023-01-05T10:42:38;1.35;99.46
64499;SHT31;51087;55.718;21.122;2023-01-05T10:45:10;1.39;99.99
64499;SHT31;51087;55.718;21.122;2023-01-05T10:47:38;1.39;99.59
64499;SHT31;51087;55.718;21.122;2023-01-05T10:52:45;1.31;99.39
64499;SHT31;51087;55.718;21.122;2023-01-05T10:55:14;1.27;99.36
64499;SHT31;51087;55.718;21.122;2023-01-05T10:57:40;1.19;99.39
64499;SHT31;51087;55.718;21.122;2023-01-05T11:00:19;1.18;99.99
64499;SHT31;51087;55.718;21.122;2023-01-05T11:03:05;1.17;99.99
64499;SHT31;51087;55.718;21.122;2023-01-05T11:05:37;1.18;99.41
64499;SHT31;51087;55.718;21.122;2023-01-05T11:08:15;1.22;99.65
64499;SHT31;51087;55.718;21.122;2023-01-05T11:10:57;1.15;99.99
64499;SHT31;51087;55.718;21.122;2023-01-05T11:13:37;1.17;99.63
64499;SHT31;51087;55.718;21.122;2023-01-05T11:16:19;1.15;99.71
64499;SHT31;51087;55.718;21.122;2023-01-05T11:18:55;1.15;99.99
64499;SHT31;51087;55.718;21.122;2023-01-05T11:21:26;1.14;99.67
64499;SHT31;51087;55.718;21.122;2023-01-05T11:23:57;1.14;99.43
64499;SHT31;51087;55.718;21.122;2023-01-05T11:26:27;1.15;98.78
64499;SHT31;51087;55.718;21.122;2023-01-05T11:31:39;1.02;99.49
64499;SHT31;51087;55.718;21.122;2023-01-05T11:36:52;0.94;99.28
64499;SHT31;51087;55.718;21.122;2023-01-05T11:39:33;0.92;98.69
64499;SHT31;51087;55.718;21.122;2023-01-05T11:44:52;0.91;98.79
64499;SHT31;51087;55.718;21.122;2023-01-05T11:47:21;0.92;98.32
64499;SHT31;51087;55.718;21.122;2023-01-05T11:49:49;0.90;99.32
64499;SHT31;51087;55.718;21.122;2023-01-05T11:57:45;0.74;99.44
64499;SHT31;51087;55.718;21.122;2023-01-05T12:00:35;0.70;99.63
64499;SHT31;51087;55.718;21.122;2023-01-05T12:03:22;0.70;99.50
64499;SHT31;51087;55.718;21.122;2023-01-05T12:05:51;0.72;99.46
64499;SHT31;51087;55.718;21.122;2023-01-05T12:08:57;0.72;99.05
64499;SHT31;51087;55.718;21.122;2023-01-05T12:11:28;0.74;99.10
64499;SHT31;51087;55.718;21.122;2023-01-05T12:14:31;0.74;98.44
64499;SHT31;51087;55.718;21.122;2023-01-05T12:17:12;0.83;98.73
64499;SHT31;51087;55.718;21.122;2023-01-05T12:20:02;0.85;98.22
64499;SHT31;51087;55.718;21.122;2023-01-05T12:28:30;0.77;97.51
64499;SHT31;51087;55.718;21.122;2023-01-05T12:47:49;0.57;96.65
64499;SHT31;51087;55.718;21.122;2023-01-05T12:52:51;0.53;95.74
64499;SHT31;51087;55.718;21.122;2023-01-05T12:55:20;0.57;96.06
64499;SHT31;51087;55.718;21.122;2023-01-05T12:58:00;0.48;96.60
64499;SHT31;51087;55.718;21.122;2023-01-05T13:00:32;0.56;96.79
64499;SHT31;51087;55.718;21.122;2023-01-05T13:03:01;0.54;96.56
64499;SHT31;51087;55.718;21.122;2023-01-05T13:05:36;0.49;97.10
64499;SHT31;51087;55.718;21.122;2023-01-05T13:08:16;0.53;96.96
64499;SHT31;51087;55.718;21.122;2023-01-05T13:10:48;0.52;96.20
64499;SHT31;51087;55.718;21.122;2023-01-05T13:13:20;0.48;96.11
64499;SHT31;51087;55.718;21.122;2023-01-05T13:16:05;0.43;96.54
64499;SHT31;51087;55.718;21.122;2023-01-05T13:18:37;0.42;95.94
64499;SHT31;51087;55.718;21.122;2023-01-05T13:21:05;0.33;95.68
64499;SHT31;51087;55.718;21.122;2023-01-05T13:23:40;0.35;94.97
64499;SHT31;51087;55.718;21.122;2023-01-05T13:26:17;0.32;95.89
64499;SHT31;51087;55.718;21.122;2023-01-05T13:28:47;0.32;95.31
64499;SHT31;51087;55.718;21.122;2023-01-05T13:47:24;0.14;95.86
64499;SHT31;51087;55.718;21.122;2023-01-05T13:52:52;0.08;95.59
64499;SHT31;51087;55.718;21.122;2023-01-05T13:55:20;0.12;95.05
64499;SHT31;51087;55.718;21.122;2023-01-05T13:57:47;0.11;94.15
64499;SHT31;51087;55.718;21.122;2023-01-05T14:00:32;0.05;94.78
64499;SHT31;51087;55.718;21.122;2023-01-05T14:03:19;0.01;94.48
64499;SHT31;51087;55.718;21.122;2023-01-05T14:05:49;0.05;95.39
64499;SHT31;51087;55.718;21.122;2023-01-05T14:08:35;0.02;94.86
64499;SHT31;51087;55.718;21.122;2023-01-05T14:22:00;-0.06;94.76
64499;SHT31;51087;55.718;21.122;2023-01-05T14:24:31;-0.02;94.53
64499;SHT31;51087;55.718;21.122;2023-01-05T14:27:01;-0.10;93.92
64499;SHT31;51087;55.718;21.122;2023-01-05T14:32:13;-0.14;93.36
64499;SHT31;51087;55.718;21.122;2023-01-05T14:34:54;-0.19;94.46
64499;SHT31;51087;55.718;21.122;2023-01-05T14:37:48;-0.14;94.33
64499;SHT31;51087;55.718;21.122;2023-01-05T14:42:58;-0.13;93.36
64499;SHT31;51087;55.718;21.122;2023-01-05T14:45:29;-0.21;92.79
64499;SHT31;51087;55.718;21.122;2023-01-05T14:47:57;-0.21;92.72
64499;SHT31;51087;55.718;21.122;2023-01-05T14:50:34;-0.19;92.50
64499;SHT31;51087;55.718;21.122;2023-01-05T14:55:36;-0.24;92.56
64499;SHT31;51087;55.718;21.122;2023-01-05T14:58:14;-0.31;92.41
64499;SHT31;51087;55.718;21.122;2023-01-05T15:01:01;-0.36;92.74
64499;SHT31;51087;55.718;21.122;2023-01-05T15:06:10;-0.34;92.14
64499;SHT31;51087;55.718;21.122;2023-01-05T15:17:15;-0.44;92.18
64499;SHT31;51087;55.718;21.122;2023-01-05T15:25:37;-0.53;91.24
64499;SHT31;51087;55.718;21.122;2023-01-05T15:33:15;-0.65;91.46
64499;SHT31;51087;55.718;21.122;2023-01-05T15:35:53;-0.62;92.01
64499;SHT31;51087;55.718;21.122;2023-01-05T15:38:25;-0.65;91.94
64499;SHT31;51087;55.718;21.122;2023-01-05T15:41:08;-0.62;91.64
64499;SHT31;51087;55.718;21.122;2023-01-05T15:43:36;-0.64;91.38
64499;SHT31;51087;55.718;21.122;2023-01-05T15:46:03;-0.64;91.61
64499;SHT31;51087;55.718;21.122;2023-01-05T15:48:45;-0.68;91.77
64499;SHT31;51087;55.718;21.122;2023-01-05T15:51:25;-0.69;92.48
64499;SHT31;51087;55.718;21.122;2023-01-05T15:53:56;-0.71;91.72
64499;SHT31;51087;55.718;21.122;2023-01-05T15:56:35;-0.71;91.88
64499;SHT31;51087;55.718;21.122;2023-01-05T15:59:03;-0.69;91.87
64499;SHT31;51087;55.718;21.122;2023-01-05T16:01:41;-0.69;91.84
64499;SHT31;51087;55.718;21.122;2023-01-05T16:04:08;-0.71;91.70
64499;SHT31;51087;55.718;21.122;2023-01-05T16:06:34;-0.69;91.16
64499;SHT31;51087;55.718;21.122;2023-01-05T16:09:13;-0.68;91.59
64499;SHT31;51087;55.718;21.122;2023-01-05T16:11:43;-0.72;91.86
64499;SHT31;51087;55.718;21.122;2023-01-05T16:14:28;-0.67;92.26
64499;SHT31;51087;55.718;21.122;2023-01-05T16:17:10;-0.78;92.92
64499;SHT31;51087;55.718;21.122;2023-01-05T16:19:49;-0.81;92.81
64499;SHT31;51087;55.718;21.122;2023-01-05T16:25:19;-0.95;92.36
64499;SHT31;51087;55.718;21.122;2023-01-05T16:27:49;-1.03;92.17
64499;SHT31;51087;55.718;21.122;2023-01-05T16:33:18;-1.13;92.16
64499;SHT31;51087;55.718;21.122;2023-01-05T16:35:51;-1.09;92.68
64499;SHT31;51087;55.718;21.122;2023-01-05T16:45:55;-1.29;92.08
64499;SHT31;51087;55.718;21.122;2023-01-05T16:51:08;-1.42;92.55
64499;SHT31;51087;55.718;21.122;2023-01-05T16:53:40;-1.42;92.32
64499;SHT31;51087;55.718;21.122;2023-01-05T16:58:45;-1.57;92.69
64499;SHT31;51087;55.718;21.122;2023-01-05T17:03:43;-1.70;92.45
64499;SHT31;51087;55.718;21.122;2023-01-05T17:08:42;-1.77;92.83
64499;SHT31;51087;55.718;21.122;2023-01-05T17:11:08;-1.78;92.75
64499;SHT31;51087;55.718;21.122;2023-01-05T17:13:43;-1.89;91.72
64499;SHT31;51087;55.718;21.122;2023-01-05T17:16:10;-1.92;91.70
64499;SHT31;51087;55.718;21.122;2023-01-05T17:18:36;-1.95;91.86
64499;SHT31;51087;55.718;21.122;2023-01-05T17:21:03;-1.98;92.48
64499;SHT31;51087;55.718;21.122;2023-01-05T17:23:40;-2.03;92.75
64499;SHT31;51087;55.718;21.122;2023-01-05T17:26:13;-2.03;92.49
64499;SHT31;51087;55.718;21.122;2023-01-05T17:28:39;-2.05;92.97
64499;SHT31;51087;55.718;21.122;2023-01-05T17:31:04;-2.14;92.55
64499;SHT31;51087;55.718;21.122;2023-01-05T17:33:30;-2.19;92.22
64499;SHT31;51087;55.718;21.122;2023-01-05T17:35:55;-2.23;92.40
64499;SHT31;51087;55.718;21.122;2023-01-05T17:38:21;-2.29;92.33
64499;SHT31;51087;55.718;21.122;2023-01-05T17:40:47;-2.34;92.44
64499;SHT31;51087;55.718;21.122;2023-01-05T17:43:13;-2.41;92.42
64499;SHT31;51087;55.718;21.122;2023-01-05T17:45:41;-2.44;92.26
64499;SHT31;51087;55.718;21.122;2023-01-05T17:48:06;-2.43;92.76
64499;SHT31;51087;55.718;21.122;2023-01-05T17:50:32;-2.44;93.28
64499;SHT31;51087;55.718;21.122;2023-01-05T17:52:59;-2.43;92.75
64499;SHT31;51087;55.718;21.122;2023-01-05T17:55:26;-2.41;93.11
64499;SHT31;51087;55.718;21.122;2023-01-05T17:57:52;-2.47;93.18
64499;SHT31;51087;55.718;21.122;2023-01-05T18:00:21;-2.47;93.43
64499;SHT31;51087;55.718;21.122;2023-01-05T18:02:47;-2.50;93.39
64499;SHT31;51087;55.718;21.122;2023-01-05T18:05:13;-2.47;93.28
64499;SHT31;51087;55.718;21.122;2023-01-05T18:07:39;-2.48;93.63
64499;SHT31;51087;55.718;21.122;2023-01-05T18:10:07;-2.47;94.09
64499;SHT31;51087;55.718;21.122;2023-01-05T18:12:33;-2.58;93.61
64499;SHT31;51087;55.718;21.122;2023-01-05T18:14:58;-2.50;93.69
64499;SHT31;51087;55.718;21.122;2023-01-05T18:17:24;-2.50;93.46
64499;SHT31;51087;55.718;21.122;2023-01-05T18:19:49;-2.56;93.51
64499;SHT31;51087;55.718;21.122;2023-01-05T18:22:15;-2.60;93.46
64499;SHT31;51087;55.718;21.122;2023-01-05T18:24:41;-2.62;93.52
64499;SHT31;51087;55.718;21.122;2023-01-05T18:27:08;-2.69;93.91
64499;SHT31;51087;55.718;21.122;2023-01-05T18:29:35;-2.64;93.78
64499;SHT31;51087;55.718;21.122;2023-01-05T18:32:02;-2.67;93.64
64499;SHT31;51087;55.718;21.122;2023-01-05T18:34:27;-2.67;93.88
64499;SHT31;51087;55.718;21.122;2023-01-05T18:36:54;-2.69;94.01